Date,TemperatureHighF,TemperatureAvgF,TemperatureLowF,DewpointHighF,DewpointAvgF,DewpointLowF,HumidityHigh,HumidityAvg,HumidityLow,PressureMaxIn,PressureMinIn,WindSpeedMaxMPH,WindSpeedAvgMPH,GustSpeedMaxMPH,PrecipitationSumIn
2013-1-1,39,36,27,31,28,16,78,72,63,30.12,29.95,12,2,14,0.00
2013-1-2,31,26,22,19,16,14,74,66,55,30.30,30.09,16,2,16,0.00
2013-1-3,32,26,19,21,17,14,86,69,53,30.31,30.19,8,1,11,0.00
2013-1-4,36,33,27,24,22,20,74,66,59,30.21,30.09,18,3,20,0.00
2013-1-5,40,32,26,25,22,20,86,68,54,30.43,30.15,13,2,14,0.00
2013-1-6,46,37,29,33,29,24,94,74,51,30.33,30.08,12,1,12,0.00
2013-1-7,44,36,22,32,27,20,94,70,49,30.50,30.17,13,2,14,0.00
2013-1-8,48,32,19,34,26,18,96,83,57,30.51,30.44,9,0,11,0.00
2013-1-9,48,37,23,39,32,22,97,84,67,30.49,30.25,11,1,11,0.00
2013-1-10,48,41,32,33,28,26,82,62,45,30.63,30.38,10,2,13,0.00
2013-1-11,44,38,29,42,34,26,98,85,73,30.61,30.17,7,1,9,0.44
2013-1-12,47,44,41,45,43,41,98,97,93,30.26,30.17,4,0,5,0.14
2013-1-13,48,45,42,48,45,41,99,99,98,30.24,30.08,6,0,6,0.01
2013-1-14,54,49,38,53,45,35,99,88,61,30.38,30.00,8,1,9,0.10
2013-1-15,38,36,33,36,31,29,94,83,74,30.44,30.29,9,1,9,0.18
2013-1-16,36,33,32,35,32,31,98,96,92,30.29,29.89,9,1,11,0.89
2013-1-17,41,37,34,35,31,28,95,78,63,30.19,30.02,14,2,14,0.01
2013-1-18,34,28,23,29,16,8,86,63,42,30.58,30.09,19,2,19,0.00
2013-1-19,52,38,24,31,26,14,80,62,41,30.50,30.01,12,3,17,0.00
2013-1-20,53,41,28,33,25,13,79,55,27,30.15,29.82,23,4,25,0.00
2013-1-21,31,26,18,21,14,11,83,61,48,30.19,29.96,10,1,15,0.00
2013-1-22,24,17,11,12,1,-5,59,49,38,30.35,29.96,21,6,24,0.00
2013-1-23,18,12,6,5,1,-4,88,62,48,30.38,30.28,15,3,17,0.00
2013-1-24,24,16,8,8,4,-1,89,62,35,30.56,30.23,17,2,19,0.00
2013-1-25,21,15,4,15,5,-1,91,67,46,30.56,30.18,11,1,12,0.00
2013-1-26,26,17,2,12,9,0,93,72,50,30.51,30.17,13,2,15,0.00
2013-1-27,33,19,4,17,12,2,91,74,48,30.67,30.50,12,1,14,0.00
2013-1-28,34,29,16,34,26,13,97,91,79,30.61,30.11,7,1,9,0.17
2013-1-29,51,43,34,46,41,33,97,91,80,30.24,30.11,6,1,7,0.03
2013-1-30,66,52,41,60,51,40,99,95,81,30.13,29.41,20,2,20,0.32
2013-1-31,62,42,27,60,31,13,98,66,45,29.91,29.14,31,8,36,1.39
2013-2-1,29,26,20,18,11,6,66,53,39,30.37,29.90,24,5,25,0.00
2013-2-2,27,22,14,21,11,5,92,64,43,30.42,30.13,13,2,16,0.00
2013-2-3,29,24,18,24,20,16,96,86,71,30.13,29.91,11,1,11,0.00
2013-2-4,28,24,19,21,13,10,86,63,48,30.12,29.94,16,4,19,0.01
2013-2-5,31,28,25,28,25,21,94,89,85,30.06,29.98,5,0,6,0.00
2013-2-6,38,31,23,28,23,15,97,75,56,30.44,30.02,14,2,17,0.01
2013-2-7,33,27,19,22,16,13,84,66,50,30.58,30.38,11,1,12,0.00
2013-2-8,34,32,30,32,29,22,97,90,74,30.38,29.78,17,4,20,0.02
2013-2-9,32,26,19,31,18,10,97,71,49,30.48,29.87,19,4,23,0.00
2013-2-10,40,26,12,22,13,8,85,60,35,30.59,30.40,4,1,6,0.09
2013-2-11,48,38,30,47,36,21,98,92,68,30.41,29.75,9,1,12,0.09
2013-2-12,43,39,27,39,27,23,95,63,52,30.08,29.85,25,4,25,0.00
2013-2-13,42,32,21,32,26,20,96,79,57,30.06,29.77,9,1,9,0.00
2013-2-14,44,34,26,33,29,24,97,83,53,30.10,29.81,11,1,11,0.13
2013-2-15,55,40,25,36,31,23,97,73,45,30.11,30.00,14,2,14,0.05
2013-2-16,35,33,28,32,26,13,96,77,52,30.08,29.86,13,2,15,0.11
2013-2-17,29,25,18,14,8,1,54,47,39,30.17,29.83,24,6,31,0.00
2013-2-18,34,24,17,15,9,3,66,51,38,30.41,30.16,17,4,20,0.00
2013-2-19,44,34,22,41,28,14,95,80,55,30.29,29.80,15,2,18,0.23
2013-2-20,35,28,24,26,15,11,73,58,49,30.14,29.86,22,7,24,0.01
2013-2-21,35,27,22,18,15,12,72,60,48,30.40,30.12,21,5,23,0.00
2013-2-22,36,29,21,29,22,14,86,74,63,30.51,30.34,9,2,11,0.00
2013-2-23,42,37,32,42,36,29,98,96,85,30.35,29.90,12,1,13,0.11
2013-2-24,45,37,31,39,31,22,97,79,60,30.12,29.87,21,3,22,0.03
2013-2-25,44,34,25,29,25,21,92,70,53,30.33,30.12,13,2,14,0.00
2013-2-26,44,34,22,35,29,21,96,84,62,30.35,29.90,20,3,22,0.30
2013-2-27,50,42,36,45,39,35,97,89,73,29.90,29.60,20,4,24,0.59
2013-2-28,45,40,34,37,33,27,92,76,53,29.74,29.66,13,2,15,0.00
2013-3-1,44,37,32,31,29,26,91,73,54,29.91,29.72,14,3,14,0.00
2013-3-2,39,34,29,27,24,20,74,67,56,29.91,29.82,13,4,15,0.00
2013-3-3,36,30,25,22,20,18,74,64,52,29.90,29.81,15,4,19,0.00
2013-3-4,39,32,28,24,20,17,68,60,48,30.04,29.90,18,5,21,0.00
2013-3-5,47,37,30,29,26,22,81,64,47,30.13,30.04,14,2,14,0.00
2013-3-6,40,37,32,35,32,27,91,82,71,30.04,29.87,25,6,29,0.07
2013-3-7,44,38,34,32,29,26,86,69,53,30.19,30.02,17,4,20,0.00
2013-3-8,43,34,29,36,29,26,96,83,65,30.32,30.13,13,3,14,0.13
2013-3-9,59,42,30,29,23,17,70,50,21,30.40,30.29,11,2,12,0.00
2013-3-10,55,40,26,37,29,19,91,67,42,30.46,30.34,10,2,12,0.00
2013-3-11,58,45,35,49,41,33,98,85,51,30.40,30.14,11,2,12,0.00
2013-3-12,56,51,41,55,48,35,97,90,77,30.14,29.75,15,4,18,1.21
2013-3-13,49,40,30,35,29,24,91,68,45,30.03,29.90,21,3,25,0.02
2013-3-14,40,34,29,24,17,12,74,50,35,30.09,29.99,27,6,27,0.00
2013-3-15,49,38,25,33,22,13,65,53,44,30.11,29.82,20,3,20,0.00
2013-3-16,45,35,31,32,29,23,95,80,61,30.02,29.85,8,1,10,0.00
2013-3-17,38,31,26,30,23,19,96,73,51,30.40,30.01,10,1,14,0.11
2013-3-18,37,31,25,33,23,12,96,75,55,30.47,30.01,14,3,19,0.17
2013-3-19,49,39,33,39,32,19,97,79,41,30.02,29.79,19,3,24,0.75
2013-3-20,46,37,29,24,20,17,66,50,33,30.01,29.87,18,4,21,0.00
2013-3-21,37,32,28,29,19,11,93,62,36,29.92,29.75,16,3,16,0.00
2013-3-22,40,32,26,24,20,13,78,60,46,30.01,29.86,17,4,21,0.00
2013-3-23,45,37,29,24,21,19,69,54,39,30.05,29.96,15,3,20,0.00
2013-3-24,46,37,23,27,22,19,88,57,37,30.07,29.77,11,1,12,0.00
2013-3-25,37,35,32,34,31,26,96,87,67,29.78,29.56,15,2,18,0.29
2013-3-26,50,41,34,35,32,26,96,73,41,29.99,29.72,14,3,14,0.12
2013-3-27,51,41,29,33,30,25,93,66,40,30.12,29.99,16,3,21,0.00
2013-3-28,48,41,33,35,30,28,85,65,50,30.24,30.08,15,3,16,0.00
2013-3-29,52,43,28,33,30,25,89,59,41,30.27,30.18,12,2,16,0.00
2013-3-30,58,42,25,33,27,23,96,61,28,30.29,30.17,11,1,14,0.00
2013-3-31,56,43,29,46,35,25,98,77,43,30.22,29.79,15,2,18,0.30
2013-4-1,60,47,35,46,36,15,98,69,36,30.02,29.74,24,4,25,0.02
2013-4-2,43,36,29,18,15,12,62,42,29,30.20,30.02,23,5,23,0.00
2013-4-3,44,36,27,19,15,11,60,42,28,30.41,30.20,18,4,23,0.00
2013-4-4,52,39,24,28,20,13,73,48,31,30.50,30.17,8,2,11,0.00
2013-4-5,62,48,38,33,27,19,78,47,22,30.18,29.83,14,2,16,0.00
2013-4-6,53,41,32,29,20,14,67,44,24,30.40,30.11,11,2,15,0.00
2013-4-7,63,49,36,44,36,29,79,62,45,30.39,30.06,13,2,16,0.00
2013-4-8,76,62,43,51,46,40,91,61,36,30.16,30.03,8,1,9,0.00
2013-4-9,82,70,59,54,50,43,76,52,26,30.07,29.96,20,3,23,0.00
2013-4-10,86,70,58,60,56,52,98,65,40,30.00,29.83,16,2,21,0.50
2013-4-11,61,57,47,60,54,43,99,90,74,30.05,29.82,15,2,17,0.51
2013-4-12,47,43,41,43,42,40,98,94,84,30.03,29.78,20,5,22,0.65
2013-4-13,59,48,35,45,38,34,99,71,43,30.06,29.83,16,2,16,0.11
2013-4-14,61,50,36,40,35,27,95,61,35,30.27,30.05,19,2,22,0.00
2013-4-15,60,51,44,44,37,32,75,59,50,30.44,30.27,10,3,13,0.00
2013-4-16,71,59,44,58,50,41,93,75,60,30.43,30.19,13,2,14,0.00
2013-4-17,72,61,52,56,46,34,94,63,26,30.35,30.18,13,1,13,0.00
2013-4-18,60,54,48,56,49,41,96,83,73,30.38,30.14,11,2,13,0.01
2013-4-19,78,65,52,66,61,47,96,86,65,30.14,29.68,17,3,22,0.77
2013-4-20,56,50,43,48,34,26,91,58,37,30.40,29.78,21,5,22,0.97
2013-4-21,56,43,30,31,26,21,74,51,33,30.70,30.40,12,2,13,0.00
2013-4-22,52,43,30,38,33,28,93,70,46,30.72,30.55,15,3,19,0.00
2013-4-23,50,44,39,43,38,33,95,80,72,30.55,30.22,14,2,15,0.00
2013-4-24,71,55,34,56,48,33,98,77,56,30.22,29.88,13,1,15,0.00
2013-4-25,65,52,40,57,34,25,81,52,25,30.36,29.95,22,3,26,0.00
2013-4-26,64,50,35,38,34,28,90,58,26,30.51,30.35,14,1,14,0.00
2013-4-27,70,54,34,40,35,31,90,53,27,30.53,30.35,7,1,10,0.00
2013-4-28,70,57,38,45,38,29,91,54,33,30.39,30.25,10,1,12,0.00
2013-4-29,54,52,50,53,50,41,97,91,61,30.30,30.21,10,2,12,0.58
2013-4-30,67,56,42,52,45,32,98,70,34,30.41,30.26,12,2,14,0.08
2013-5-1,67,52,35,44,38,30,94,62,27,30.55,30.40,12,2,14,0.00
2013-5-2,72,55,36,49,43,35,98,67,34,30.55,30.40,10,1,11,0.00
2013-5-3,65,54,43,43,40,35,90,62,36,30.51,30.41,14,2,16,0.00
2013-5-4,69,54,37,48,42,36,98,69,39,30.45,30.28,11,2,17,0.00
2013-5-5,65,51,38,46,41,36,96,72,45,30.36,30.27,13,2,13,0.00
2013-5-6,68,54,41,55,49,38,96,83,60,30.33,30.21,9,1,12,0.00
2013-5-7,71,60,50,62,55,49,97,86,67,30.23,30.13,9,2,13,0.04
2013-5-8,71,61,56,63,58,56,98,93,67,30.13,29.99,14,1,18,0.94
2013-5-9,71,60,54,59,56,53,98,87,60,30.05,29.97,9,0,9,0.34
2013-5-10,82,67,49,62,56,48,98,72,39,30.09,29.96,12,0,12,0.35
2013-5-11,74,64,58,66,62,57,98,93,74,29.99,29.78,10,0,10,1.19
2013-5-12,64,57,46,57,42,27,93,59,31,30.06,29.77,18,2,21,0.02
2013-5-13,54,46,34,36,31,24,96,59,32,30.22,30.05,15,2,17,0.00
2013-5-14,62,47,31,38,31,25,97,60,26,30.25,30.12,12,1,14,0.00
2013-5-15,73,59,41,59,50,37,89,73,57,30.16,29.78,9,1,11,0.01
2013-5-16,81,66,53,66,59,52,98,80,51,29.93,29.80,7,0,10,0.07
2013-5-17,75,62,47,52,46,41,90,58,31,30.27,29.93,9,1,10,0.00
2013-5-18,65,58,48,56,52,45,93,82,66,30.36,30.27,8,1,10,0.01
2013-5-19,60,58,55,59,57,54,98,97,93,30.36,30.23,9,2,11,0.19
2013-5-20,80,67,56,70,63,56,99,89,67,30.25,30.04,6,0,6,0.01
2013-5-21,86,73,59,73,67,58,99,83,62,30.06,29.92,6,0,7,0.00
2013-5-22,87,75,64,74,69,63,98,84,58,29.99,29.88,8,0,9,0.00
2013-5-23,79,71,62,71,68,60,97,91,69,29.96,29.82,7,0,10,1.18
2013-5-24,63,54,45,63,50,39,99,90,74,30.09,29.77,13,1,14,1.02
2013-5-25,60,52,44,41,38,33,89,62,41,30.14,30.05,16,2,16,0.01
2013-5-26,69,56,45,42,38,35,85,53,29,30.30,30.10,16,2,17,0.00
2013-5-27,72,57,36,48,41,35,98,62,33,30.35,30.23,10,1,12,0.00
2013-5-28,62,56,47,60,54,45,98,93,73,30.30,30.19,6,0,9,0.34
2013-5-29,88,72,57,71,64,56,99,79,47,30.20,30.09,9,1,11,0.01
2013-5-30,91,79,65,71,66,63,98,68,41,30.22,30.14,7,0,9,0.00
2013-5-31,92,78,63,72,65,57,98,68,32,30.20,30.07,7,0,7,0.00
2013-6-1,90,78,63,72,68,62,98,73,49,30.10,29.96,6,1,8,0.00
2013-6-2,86,78,71,73,69,66,92,74,61,29.98,29.85,7,1,10,0.01
2013-6-3,82,72,64,70,66,58,98,84,59,29.96,29.87,7,0,9,0.48
2013-6-4,76,64,53,58,48,43,84,58,32,30.19,29.96,11,1,15,0.00
2013-6-5,78,64,46,55,48,42,91,61,38,30.29,30.16,7,1,9,0.00
2013-6-6,74,61,50,62,56,49,97,84,49,30.21,30.04,9,1,13,0.18
2013-6-7,64,62,60,63,61,59,98,97,96,30.04,29.68,14,1,20,3.59
2013-6-8,77,67,58,66,62,57,98,85,65,30.14,29.68,9,0,11,0.36
2013-6-9,84,70,53,65,60,52,99,74,46,30.25,30.15,3,0,4,0.00
2013-6-10,71,67,64,70,66,62,99,96,92,30.21,29.84,7,0,8,1.88
2013-6-11,80,73,66,70,66,61,98,81,65,29.84,29.74,9,0,14,0.20
2013-6-12,81,72,62,63,60,57,90,69,46,29.91,29.82,11,0,13,0.00
2013-6-13,74,65,58,69,61,56,96,89,78,29.91,29.48,10,0,10,0.45
2013-6-14,76,62,54,61,55,51,97,82,56,30.00,29.60,10,1,11,0.23
2013-6-15,80,68,53,62,57,52,98,71,41,30.11,29.99,7,0,10,0.00
2013-6-16,82,69,55,67,61,54,98,78,46,30.08,29.88,11,1,13,0.00
2013-6-17,85,73,62,73,66,61,98,81,54,30.00,29.91,12,0,12,0.06
2013-6-18,80,69,62,71,66,61,98,92,71,29.98,29.87,5,0,6,0.20
2013-6-19,79,66,57,61,55,50,97,72,41,30.23,29.95,8,1,10,0.01
2013-6-20,80,67,51,63,57,50,98,72,48,30.35,30.23,6,0,7,0.00
2013-6-21,84,70,53,61,56,51,97,65,42,30.38,30.30,5,0,8,0.00
2013-6-22,86,72,54,68,62,52,98,74,51,30.33,30.18,6,0,7,0.00
2013-6-23,87,74,60,74,68,59,98,81,57,30.27,30.12,8,0,8,0.00
2013-6-24,91,78,68,74,70,62,98,78,51,30.16,30.04,9,0,9,0.00
2013-6-25,89,77,64,76,69,62,98,78,52,30.07,29.90,8,0,10,0.02
2013-6-26,88,76,67,77,69,63,97,79,56,29.94,29.84,7,0,8,0.12
2013-6-27,88,76,68,74,71,67,98,84,60,29.89,29.60,11,1,15,0.57
2013-6-28,86,75,67,72,70,66,98,84,60,29.64,29.54,5,0,9,0.16
2013-6-29,86,74,65,71,67,63,99,79,47,29.77,29.55,5,0,7,0.07
2013-6-30,83,74,66,76,70,64,97,90,77,29.96,29.77,6,0,13,0.62
2013-7-1,78,74,70,75,72,69,98,94,87,30.09,29.94,8,0,13,1.85
2013-7-2,85,77,73,75,72,70,96,87,68,30.25,30.09,7,0,8,0.01
2013-7-3,86,77,70,77,72,68,96,87,71,30.31,30.23,4,0,6,0.00
2013-7-4,88,79,71,76,73,70,98,83,63,30.32,30.23,6,0,10,0.00
2013-7-5,90,81,70,77,73,69,98,78,56,30.29,30.17,6,0,8,0.00
2013-7-6,92,83,72,76,74,71,97,76,55,30.22,30.10,6,0,7,0.00
2013-7-7,91,81,70,78,73,69,97,79,59,30.15,30.02,10,0,13,0.03
2013-7-8,86,75,68,74,69,67,97,83,60,30.14,30.06,8,0,9,0.04
2013-7-9,87,77,67,75,71,66,98,84,65,30.14,30.06,5,0,9,0.00
2013-7-10,87,78,70,76,73,69,98,85,65,30.09,29.88,9,0,9,0.04
2013-7-11,84,77,73,74,71,64,96,82,63,29.99,29.87,5,0,8,0.00
2013-7-12,75,71,68,70,66,62,97,84,69,30.12,29.99,13,1,13,0.94
2013-7-13,86,74,68,76,72,67,98,93,71,30.36,30.12,7,0,10,0.40
2013-7-14,91,79,72,76,73,71,99,85,57,30.42,30.32,5,0,5,0.02
2013-7-15,94,82,69,79,74,68,98,79,54,30.34,30.21,5,0,6,0.00
2013-7-16,92,82,72,77,72,69,96,75,51,30.29,30.21,7,1,8,0.00
2013-7-17,96,83,72,76,72,68,96,72,43,30.27,30.14,6,0,7,0.00
2013-7-18,96,84,73,79,75,71,95,76,51,30.16,30.04,4,0,6,0.00
2013-7-19,94,86,76,81,78,73,97,78,57,30.06,29.87,7,0,9,0.00
2013-7-20,90,81,75,76,73,70,91,75,59,29.91,29.82,7,0,10,0.00
2013-7-21,88,77,71,75,72,69,97,83,61,30.02,29.90,7,0,8,0.00
2013-7-22,85,75,70,77,72,68,97,91,72,30.02,29.85,8,0,8,0.22
2013-7-23,86,76,70,77,72,68,98,88,66,29.85,29.65,6,0,6,1.04
2013-7-24,80,72,63,69,65,54,98,79,57,30.01,29.70,7,0,10,0.01
2013-7-25,69,64,58,60,56,52,88,77,69,30.12,30.00,11,1,11,0.00
2013-7-26,83,70,60,64,60,58,94,73,47,30.13,30.08,7,0,9,0.00
2013-7-27,85,72,57,70,63,56,98,77,53,30.12,29.99,10,0,11,0.00
2013-7-28,80,71,65,74,68,62,97,91,80,30.05,29.94,6,0,8,0.25
2013-7-29,81,71,59,66,62,56,99,75,44,30.19,30.02,6,0,8,0.04
2013-7-30,79,68,54,63,59,53,99,76,50,30.27,30.19,5,0,7,0.00
2013-7-31,84,70,55,66,61,55,98,76,47,30.24,30.10,5,0,6,0.00
2013-8-1,72,68,64,70,66,63,98,95,90,30.10,29.89,7,0,8,0.97
2013-8-2,82,73,62,69,65,61,99,80,52,30.01,29.89,6,0,8,0.01
2013-8-3,77,68,61,68,65,60,97,90,74,30.01,29.94,4,0,7,0.05
2013-8-4,79,68,60,63,59,55,99,76,47,30.08,29.94,9,1,11,0.00
2013-8-5,76,65,53,59,55,50,96,73,46,30.17,30.08,7,0,9,0.00
2013-8-6,80,66,52,66,59,51,98,79,48,30.19,30.11,5,0,7,0.00
2013-8-7,76,69,62,69,66,60,97,91,77,30.19,30.12,9,0,9,0.05
2013-8-8,85,76,68,76,71,67,98,88,70,30.13,30.04,7,0,13,0.18
2013-8-9,84,77,73,77,74,71,97,90,77,30.07,29.89,6,0,8,0.04
2013-8-10,83,74,65,73,67,63,97,78,57,30.12,29.95,7,0,7,0.00
2013-8-11,84,71,58,69,63,56,98,77,54,30.21,30.08,3,0,5,0.00
2013-8-12,84,73,67,70,67,64,97,83,53,30.10,29.99,6,0,7,0.10
2013-8-13,81,71,65,71,68,64,98,89,70,29.99,29.77,6,0,9,1.70
2013-8-14,73,64,53,67,54,49,96,72,53,30.15,29.84,8,1,20,0.00
2013-8-15,77,62,48,59,52,47,99,75,42,30.24,30.14,8,0,9,0.00
2013-8-16,79,65,49,63,55,49,99,75,43,30.28,30.21,5,0,6,0.00
2013-8-17,81,67,52,65,58,52,99,75,45,30.35,30.28,5,0,5,0.00
2013-8-18,74,66,60,66,62,58,97,86,63,30.33,30.22,5,0,6,0.02
2013-8-19,75,67,59,68,63,58,99,89,71,30.23,30.12,4,0,4,0.02
2013-8-20,86,72,59,72,65,58,99,81,53,30.22,30.14,3,0,4,0.02
2013-8-21,87,74,59,71,65,58,99,78,45,30.26,30.13,4,0,6,0.00
2013-8-22,82,74,70,75,71,67,97,90,74,30.14,29.96,6,0,7,0.11
2013-8-23,77,70,62,68,63,58,98,80,57,30.18,29.97,6,0,10,0.00
2013-8-24,78,67,54,59,55,49,95,68,38,30.43,30.17,8,1,9,0.00
2013-8-25,79,65,49,62,56,48,99,76,46,30.49,30.33,4,0,5,0.00
2013-8-26,83,71,60,69,63,56,92,76,57,30.33,30.01,8,0,11,0.03
2013-8-27,86,75,68,71,68,66,97,80,56,30.01,29.92,7,0,10,0.08
2013-8-28,75,70,66,72,69,65,99,97,88,29.97,29.90,3,0,5,1.92
2013-8-29,80,72,68,72,69,66,99,91,74,30.10,29.95,6,0,7,0.00
2013-8-30,82,73,66,74,69,65,97,88,73,30.10,29.94,4,0,5,0.00
2013-8-31,85,76,69,76,72,68,97,87,72,29.95,29.85,6,0,6,0.00
2013-9-1,88,76,69,78,72,67,98,88,63,29.95,29.83,11,0,14,0.75
2013-9-2,80,73,70,76,72,69,98,95,83,29.87,29.77,5,0,7,1.87
2013-9-3,78,72,64,70,65,58,99,81,54,29.98,29.78,7,0,9,0.00
2013-9-4,78,67,56,62,59,55,98,78,55,30.11,29.98,7,0,8,0.00
2013-9-5,76,65,54,64,56,46,97,75,38,30.22,30.03,10,0,13,0.00
2013-9-6,69,58,47,52,47,43,95,70,40,30.34,30.22,7,0,8,0.00
2013-9-7,76,60,44,59,52,43,99,76,44,30.23,29.99,4,0,6,0.00
2013-9-8,79,68,57,67,59,48,95,75,55,30.16,29.93,9,0,10,0.00
2013-9-9,75,62,47,62,54,44,93,75,59,30.30,30.16,7,0,7,0.00
2013-9-10,85,75,65,76,70,62,96,86,71,30.25,30.13,6,0,6,0.00
2013-9-11,92,80,70,79,74,69,98,83,62,30.20,30.05,6,0,8,0.00
2013-9-12,86,75,68,76,71,67,98,89,68,30.07,29.78,9,0,12,0.30
2013-9-13,74,66,55,67,60,50,99,83,58,29.96,29.72,10,0,10,0.02
2013-9-14,62,55,43,50,48,42,96,78,63,30.24,29.96,12,0,12,0.00
2013-9-15,70,55,40,56,48,39,98,81,50,30.32,30.17,4,0,7,0.00
2013-9-16,69,60,54,60,55,48,98,84,62,30.33,30.12,7,0,9,0.04
2013-9-17,63,52,42,49,44,40,96,74,47,30.52,30.32,10,1,15,0.00
2013-9-18,68,53,37,51,45,36,99,78,42,30.44,30.28,4,0,4,0.00
2013-9-19,73,57,41,58,50,40,99,80,49,30.29,30.16,5,0,5,0.00
2013-9-20,77,62,47,64,55,46,99,82,55,30.17,30.05,3,0,5,0.00
2013-9-21,77,64,50,66,58,50,99,83,52,30.09,29.75,8,0,11,1.15
2013-9-22,66,60,49,61,52,44,98,77,50,30.01,29.74,9,1,11,1.41
2013-9-23,64,54,42,48,44,40,94,73,54,30.15,30.01,9,1,12,0.00
2013-9-24,70,54,41,52,46,39,94,76,45,30.16,29.99,5,0,6,0.00
2013-9-25,70,56,44,56,48,42,97,78,46,30.06,29.96,5,0,6,0.00
2013-9-26,72,58,45,60,53,45,99,86,61,30.17,30.02,6,0,7,0.00
2013-9-27,69,59,51,57,53,50,98,82,56,30.35,30.17,5,0,7,0.00
2013-9-28,71,60,49,56,52,48,97,78,47,30.40,30.32,7,1,9,0.00
2013-9-29,70,56,44,59,52,43,99,86,61,30.32,30.16,4,0,8,0.00
2013-9-30,72,56,43,58,50,43,99,83,52,30.17,30.06,4,0,5,0.00
2013-10-1,78,61,47,64,55,47,99,83,56,30.12,30.00,5,0,7,0.00
2013-10-2,81,65,50,65,58,49,99,83,55,30.11,30.02,7,0,10,0.00
2013-10-3,79,66,52,65,60,52,99,83,54,30.20,30.10,2,0,3,0.00
2013-10-4,84,69,57,70,63,56,99,85,56,30.15,30.05,4,0,5,0.00
2013-10-5,83,71,61,69,66,60,98,85,62,30.15,30.07,5,0,7,0.01
2013-10-6,75,67,64,69,66,63,98,95,82,30.14,30.06,8,1,8,0.06
2013-10-7,76,64,54,71,63,48,98,95,76,30.09,29.81,12,1,14,0.63
2013-10-8,65,53,44,51,47,43,99,83,53,30.40,30.08,6,0,10,0.00
2013-10-9,60,53,44,51,47,42,96,81,68,30.46,30.34,11,1,12,0.00
2013-10-10,59,55,51,57,52,48,96,91,82,30.35,30.12,11,2,14,0.56
2013-10-11,63,60,57,61,58,55,97,93,88,30.15,30.06,13,2,14,1.26
2013-10-12,70,63,57,59,53,43,90,70,50,30.32,30.13,15,2,18,0.00
2013-10-13,66,59,49,55,52,47,97,78,58,30.44,30.31,11,2,16,0.00
2013-10-14,66,54,43,54,49,42,99,85,59,30.44,30.32,6,0,7,0.00
2013-10-15,70,54,42,57,48,41,99,82,47,30.35,30.19,7,0,7,0.00
2013-10-16,66,57,46,60,54,44,97,91,79,30.19,30.00,3,0,4,0.00
2013-10-17,72,64,57,64,61,56,98,91,73,30.00,29.77,5,0,6,0.05
2013-10-18,64,56,41,62,47,40,95,71,53,30.08,29.78,9,2,13,0.05
2013-10-19,62,50,37,54,45,36,98,86,56,30.08,29.85,6,0,7,0.04
2013-10-20,60,50,37,52,41,35,96,73,43,30.17,29.88,8,1,13,0.04
2013-10-21,65,50,33,46,40,32,98,73,41,30.25,30.06,7,0,9,0.00
2013-10-22,61,50,39,52,44,34,98,82,58,30.06,29.87,5,0,7,0.01
2013-10-23,56,45,36,43,37,33,92,76,58,29.91,29.71,8,0,9,0.00
2013-10-24,50,42,33,37,32,28,93,71,45,30.14,29.88,11,1,13,0.00
2013-10-25,52,40,29,36,32,27,96,75,48,30.35,30.14,12,1,12,0.00
2013-10-26,54,41,26,35,31,25,98,72,43,30.34,30.00,11,1,13,0.00
2013-10-27,56,46,34,37,34,31,88,63,44,30.23,29.98,8,1,12,0.00
2013-10-28,60,43,28,39,34,27,97,74,43,30.40,30.23,7,0,7,0.00
2013-10-29,58,45,34,42,37,31,94,76,51,30.50,30.40,7,0,7,0.00
2013-10-30,59,48,35,52,45,34,96,89,77,30.44,30.27,3,0,4,0.00
2013-10-31,66,58,48,62,55,47,98,91,77,30.31,29.86,8,0,8,0.04
2013-11-1,68,62,49,64,58,48,98,87,65,29.86,29.63,13,1,20,0.29
2013-11-2,67,54,42,52,46,39,98,77,48,29.88,29.71,6,0,8,0.00
2013-11-3,50,43,32,43,32,21,88,67,43,30.56,29.88,12,2,18,0.00
2013-11-4,45,34,26,25,21,17,86,61,34,30.75,30.55,11,1,15,0.00
2013-11-5,56,43,29,43,36,25,92,76,57,30.75,30.57,6,0,8,0.00
2013-11-6,64,53,42,51,46,39,94,81,58,30.59,30.15,8,0,10,0.00
2013-11-7,60,52,37,57,49,34,95,89,70,30.15,29.87,10,1,13,0.11
2013-11-8,48,41,34,36,30,26,80,65,48,30.35,30.06,13,2,17,0.00
2013-11-9,50,39,24,34,29,23,96,71,43,30.41,30.09,7,0,8,0.00
2013-11-10,57,46,32,39,32,28,92,61,39,30.19,29.96,14,3,23,0.00
2013-11-11,53,46,32,37,32,26,82,57,46,30.33,30.06,8,1,12,0.00
2013-11-12,50,35,23,37,24,16,90,65,50,30.42,30.04,11,2,15,0.00
2013-11-13,38,30,23,20,16,13,83,58,41,30.51,30.40,15,2,16,0.00
2013-11-14,52,37,26,24,20,14,77,53,22,30.40,30.29,12,1,15,0.00
2013-11-15,56,39,26,34,28,23,90,68,31,30.35,30.26,3,0,6,0.00
2013-11-16,59,48,37,47,43,32,97,83,61,30.43,30.34,5,0,6,0.05
2013-11-17,65,56,48,58,53,47,97,89,76,30.35,29.84,11,1,12,0.00
2013-11-18,64,58,47,61,41,29,96,58,30,29.92,29.70,17,3,21,0.27
2013-11-19,47,41,28,30,26,22,79,56,46,30.45,29.92,17,3,18,0.00
2013-11-20,45,33,23,23,18,6,76,57,22,30.70,30.45,11,1,15,0.00
2013-11-21,51,39,22,41,30,16,82,70,58,30.70,30.48,8,1,8,0.00
2013-11-22,56,50,46,50,47,41,96,87,77,30.48,30.04,12,1,13,0.02
2013-11-23,52,40,28,48,27,8,87,61,41,30.17,30.04,15,4,22,0.02
2013-11-24,28,24,20,12,4,1,55,42,35,30.53,30.16,18,5,23,0.00
2013-11-25,33,26,18,18,13,7,76,58,44,30.62,30.43,9,2,10,0.00
2013-11-26,41,34,31,41,27,18,98,78,57,30.44,29.77,11,1,11,0.61
2013-11-27,61,41,31,60,38,21,99,90,62,29.92,29.49,20,4,26,2.14
2013-11-28,34,30,27,21,17,14,72,60,46,30.58,29.92,18,4,20,0.00
2013-11-29,38,28,19,26,20,16,96,73,51,30.85,30.57,9,1,11,0.00
2013-11-30,37,27,16,28,21,12,90,77,64,30.85,30.48,9,1,9,0.00
2013-12-1,47,37,24,33,30,23,96,76,53,30.48,30.11,6,0,7,0.00
2013-12-2,50,39,32,36,32,30,91,77,57,30.12,29.97,4,0,4,0.00
2013-12-3,52,40,30,41,34,28,95,81,53,30.10,29.98,6,0,7,0.00
2013-12-4,50,41,30,44,37,28,97,87,72,30.21,30.10,5,0,6,0.00
2013-12-5,57,51,45,56,50,44,99,97,91,30.20,30.01,6,0,6,0.01
2013-12-6,60,46,35,60,45,34,99,96,88,30.25,29.95,11,2,13,0.65
2013-12-7,38,33,26,34,29,21,97,87,73,30.62,30.17,12,1,15,0.57
2013-12-8,29,26,22,27,22,17,96,84,67,30.69,30.43,8,1,10,0.00
2013-12-9,35,32,28,34,32,27,98,97,96,30.44,30.09,10,1,10,0.09
2013-12-10,32,30,22,31,28,18,98,92,77,30.26,30.01,5,0,7,0.02
2013-12-11,31,24,13,20,17,11,94,75,59,30.46,30.26,10,1,14,0.00
2013-12-12,25,20,13,20,12,6,94,70,45,30.48,30.27,11,1,12,0.00
2013-12-13,34,25,14,20,14,7,83,64,49,30.44,30.26,15,1,17,0.00
2013-12-14,28,25,22,27,22,20,96,87,76,30.54,29.81,11,2,15,0.00
2013-12-15,38,31,25,33,27,21,97,84,64,29.96,29.66,18,2,21,0.16
2013-12-16,30,23,13,22,12,9,86,64,46,30.33,29.95,16,3,23,0.00
2013-12-17,26,21,17,24,19,14,94,89,74,30.31,30.05,7,1,8,0.00
2013-12-18,36,26,13,23,19,11,96,77,57,30.30,30.05,17,2,17,0.02
2013-12-19,44,29,14,30,23,12,95,79,55,30.30,30.14,7,0,8,0.11
2013-12-20,52,39,27,35,31,25,95,75,48,30.20,30.06,5,0,6,0.10
2013-12-21,63,47,34,56,44,32,98,87,71,30.11,29.98,7,0,7,0.00
2013-12-22,67,63,59,63,59,56,94,88,82,30.03,29.89,12,3,16,0.04
2013-12-23,59,53,40,58,51,33,98,93,75,30.23,29.98,13,-2,13,0.79
2013-12-24,37,32,24,26,22,15,81,66,56,30.49,30.21,15,-26,19,0.00
2013-12-25,27,24,16,18,12,7,77,61,49,30.64,30.48,8,-8,9,0.00
2013-12-26,36,30,22,29,24,16,90,77,67,30.51,30.28,12,-8,13,0.00
2013-12-27,41,31,22,24,22,19,91,69,45,30.48,30.38,15,-8,15,0.00
2013-12-28,56,43,21,31,28,19,92,56,37,30.39,30.18,13,-17,15,0.00
2013-12-29,42,40,35,40,36,28,97,87,66,30.18,29.55,9,-25,10,1.00
2013-12-30,43,34,23,38,25,14,90,70,61,30.28,29.83,15,-31,17,0.00
2013-12-31,32,27,19,27,17,12,85,67,53,30.41,30.15,15,-12,16,0.00
2014-1-1,34,29,21,23,20,12,85,68,61,30.51,30.30,6,-9,7,0.00
2014-1-2,29,24,15,24,21,13,94,88,74,30.30,29.75,15,-16,15,0.00